Anson, Texas
Current Conditions -  °F | °C
As of 11:58 AM on Sunday 25 Jan 2015 (Local Time) from KDYS Reporting Station
Clear Clear  
Wind Chill: 57°   Ceiling: Unl
Heat Index: 57°   Visibility: 10mi
Dew Point: 33°   Wind: 12mph
Humidity: 41%   Direction: 360°N
Pressure: 30.18"   Gusts: NA
Location:  32.76°N, 99.9°W
Report Text: KDYS 251758Z AUTO 36010KT 10SM CLR 14/01 A3018 RMK AO2 SLP215 T01390008 10139 20046 51010 $
Loading
Personal Weather Stations






























Interactive Weather Map New forecast layout! Learn more

10-Day Weather Forecast

Advertisements
Track Severe Weather on mobile